createdAt,value
2022-12-19T00:00:32.302Z,50.877209
2022-12-19T00:01:32.411Z,50.877220
2022-12-19T00:02:32.432Z,50.877209
2022-12-19T00:03:32.387Z,50.877205
2022-12-19T00:04:32.245Z,50.877151
2022-12-19T00:05:32.237Z,50.877186
2022-12-19T00:06:32.225Z,50.877178
2022-12-19T00:07:32.213Z,50.877224
2022-12-19T00:08:33.307Z,50.877232
2022-12-19T00:09:32.244Z,50.877243
2022-12-19T00:10:32.237Z,50.877216
2022-12-19T00:11:32.186Z,50.877186
2022-12-19T00:12:32.194Z,50.877178
2022-12-19T00:13:33.609Z,50.877178
2022-12-19T00:14:32.166Z,50.877171
2022-12-19T00:15:32.123Z,50.877079
2022-12-19T00:16:32.164Z,50.877151
2022-12-19T00:17:32.125Z,50.877205
2022-12-19T00:18:32.113Z,50.877209
2022-12-19T00:19:32.131Z,50.877209
2022-12-19T00:20:32.083Z,50.877197
2022-12-19T00:21:34.015Z,50.877213
2022-12-19T00:22:32.093Z,50.877163
2022-12-19T00:23:32.067Z,50.877220
2022-12-19T00:24:33.436Z,50.877190
2022-12-19T00:25:32.061Z,50.877216
2022-12-19T00:26:32.038Z,50.877190
2022-12-19T00:27:32.044Z,50.877201
2022-12-19T00:28:32.034Z,50.877167
2022-12-19T00:29:32.001Z,50.877201
2022-12-19T00:30:32.024Z,50.877220
2022-12-19T00:31:32.026Z,50.877193
2022-12-19T00:32:31.982Z,50.877190
2022-12-19T00:33:31.966Z,50.877174
2022-12-19T00:34:31.970Z,50.877174
2022-12-19T00:35:32.005Z,50.877186
2022-12-19T00:36:31.948Z,50.877232
2022-12-19T00:37:31.938Z,50.877228
2022-12-19T00:38:31.924Z,50.877193
2022-12-19T00:39:31.917Z,50.877190
2022-12-19T00:40:31.980Z,50.877171
2022-12-19T00:41:31.914Z,50.877148
2022-12-19T00:42:32.890Z,50.877178
2022-12-19T00:43:31.873Z,50.877190
2022-12-19T00:44:31.886Z,50.877178
2022-12-19T00:45:31.969Z,50.877197
2022-12-19T00:46:31.880Z,50.877197
2022-12-19T00:47:31.829Z,50.877205
2022-12-19T00:48:31.830Z,50.877125
2022-12-19T00:49:31.824Z,50.877182
2022-12-19T00:50:31.802Z,50.877163
2022-12-19T00:51:32.137Z,50.877182
2022-12-19T00:52:31.782Z,50.877190
2022-12-19T00:53:31.799Z,50.877193
2022-12-19T00:54:31.850Z,50.877159
2022-12-19T00:55:31.749Z,50.877190
2022-12-19T00:56:31.837Z,50.877140
2022-12-19T00:57:31.781Z,50.877148
2022-12-19T00:58:35.267Z,50.877136
2022-12-19T00:59:32.726Z,50.877098
2022-12-19T01:00:31.835Z,50.877182
2022-12-19T01:01:31.797Z,50.877167
2022-12-19T01:02:31.859Z,50.877186
2022-12-19T01:03:31.675Z,50.877113
2022-12-19T01:04:34.462Z,50.877110
2022-12-19T01:05:33.667Z,50.877117
2022-12-19T01:06:31.677Z,50.877106
2022-12-19T01:07:31.648Z,50.877151
2022-12-19T01:08:31.655Z,50.877186
2022-12-19T01:09:31.615Z,50.877174
2022-12-19T01:10:31.655Z,50.877182
2022-12-19T01:11:31.635Z,50.877171
2022-12-19T01:12:31.683Z,50.877190
2022-12-19T01:13:31.624Z,50.877201
2022-12-19T01:14:31.623Z,50.877205
2022-12-19T01:15:31.576Z,50.877201
2022-12-19T01:16:31.620Z,50.877186
2022-12-19T01:17:31.558Z,50.877235
2022-12-19T01:18:31.559Z,50.877186
2022-12-19T01:19:31.551Z,50.877193
2022-12-19T01:20:31.531Z,50.877190
2022-12-19T01:21:31.515Z,50.877209
2022-12-19T01:22:31.507Z,50.877216
2022-12-19T01:23:31.517Z,50.877193
2022-12-19T01:24:31.476Z,50.877193
2022-12-19T01:25:31.510Z,50.877171
2022-12-19T01:26:32.488Z,50.877174
2022-12-19T01:27:31.468Z,50.877182
2022-12-19T01:28:31.545Z,50.877190
2022-12-19T01:29:31.441Z,50.877201
2022-12-19T01:30:31.440Z,50.877190
2022-12-19T01:31:31.473Z,50.877201
2022-12-19T01:32:31.421Z,50.877220
2022-12-19T01:33:31.412Z,50.877209
2022-12-19T01:34:31.386Z,50.877193
2022-12-19T01:35:31.381Z,50.877197
2022-12-19T01:36:31.453Z,50.877167
2022-12-19T01:37:31.389Z,50.877167
2022-12-19T01:38:31.367Z,50.877205
2022-12-19T01:39:31.334Z,50.877220
2022-12-19T01:40:31.347Z,50.877224
2022-12-19T01:41:31.351Z,50.877209
2022-12-19T01:42:31.330Z,50.877197
2022-12-19T01:43:31.320Z,50.877216
2022-12-19T01:44:31.401Z,50.877220
2022-12-19T01:45:34.324Z,50.877247
2022-12-19T01:46:32.335Z,50.877220
2022-12-19T01:47:31.300Z,50.877220
2022-12-19T01:48:31.264Z,50.877209
2022-12-19T01:49:31.292Z,50.877216
2022-12-19T01:50:31.243Z,50.877224
2022-12-19T01:51:31.323Z,50.877171
2022-12-19T01:52:31.223Z,50.877216
2022-12-19T01:53:31.223Z,50.877213
2022-12-19T01:54:31.203Z,50.877178
2022-12-19T01:55:31.212Z,50.877243
2022-12-19T01:56:31.162Z,50.877266
2022-12-19T01:57:32.805Z,50.877285
2022-12-19T01:58:31.135Z,50.877239
2022-12-19T01:59:31.157Z,50.877239
2022-12-19T02:00:31.312Z,50.877201
2022-12-19T02:01:31.251Z,50.877224
2022-12-19T02:02:31.185Z,50.877277
2022-12-19T02:03:31.087Z,50.877270
2022-12-19T02:04:32.299Z,50.877254
2022-12-19T02:05:31.091Z,50.877247
2022-12-19T02:06:31.078Z,50.877258
2022-12-19T02:07:32.089Z,50.877220
2022-12-19T02:08:31.057Z,50.877224
2022-12-19T02:09:31.050Z,50.877228
2022-12-19T02:10:31.032Z,50.877251
2022-12-19T02:11:31.024Z,50.877186
2022-12-19T02:12:31.033Z,50.877193
2022-12-19T02:13:31.013Z,50.877239
2022-12-19T02:14:31.000Z,50.877224
2022-12-19T02:15:30.963Z,50.877190
2022-12-19T02:16:31.105Z,50.877174
2022-12-19T02:17:30.988Z,50.877216
2022-12-19T02:18:30.954Z,50.877209
2022-12-19T02:19:30.937Z,50.877224
2022-12-19T02:20:30.957Z,50.877228
2022-12-19T02:21:30.921Z,50.877258
2022-12-19T02:22:30.923Z,50.877239
2022-12-19T02:23:30.909Z,50.877213
2022-12-19T02:24:30.905Z,50.877216
2022-12-19T02:25:30.894Z,50.877239
2022-12-19T02:26:30.881Z,50.877251
2022-12-19T02:27:32.413Z,50.877258
2022-12-19T02:28:30.887Z,50.877228
2022-12-19T02:29:30.910Z,50.877224
2022-12-19T02:30:30.868Z,50.877213
2022-12-19T02:31:30.880Z,50.877232
2022-12-19T02:32:30.902Z,50.877178
2022-12-19T02:33:31.826Z,50.877213
2022-12-19T02:34:30.840Z,50.877201
2022-12-19T02:35:30.802Z,50.877201
2022-12-19T02:36:32.415Z,50.877243
2022-12-19T02:37:31.794Z,50.877201
2022-12-19T02:38:30.816Z,50.877193
2022-12-19T02:39:32.070Z,50.877274
2022-12-19T02:40:30.747Z,50.877262
2022-12-19T02:41:30.802Z,50.877243
2022-12-19T02:42:30.732Z,50.877220
2022-12-19T02:43:30.751Z,50.877205
2022-12-19T02:44:30.744Z,50.877235
2022-12-19T02:45:30.742Z,50.877228
2022-12-19T02:46:30.775Z,50.877224
2022-12-19T02:47:30.689Z,50.877205
2022-12-19T02:48:30.816Z,50.877197
2022-12-19T02:49:31.323Z,50.877258
2022-12-19T02:50:30.697Z,50.877251
2022-12-19T02:51:30.645Z,50.877224
2022-12-19T02:52:30.671Z,50.877232
2022-12-19T02:53:30.676Z,50.877239
2022-12-19T02:54:30.647Z,50.877251
2022-12-19T02:55:30.619Z,50.877209
2022-12-19T02:56:30.606Z,50.877186
2022-12-19T02:57:30.610Z,50.877224
2022-12-19T02:58:30.623Z,50.877216
2022-12-19T02:59:30.618Z,50.877235
2022-12-19T03:00:30.582Z,50.877205
2022-12-19T03:01:30.670Z,50.877239
2022-12-19T03:02:30.672Z,50.877216
2022-12-19T03:03:30.610Z,50.877216
2022-12-19T03:04:30.629Z,50.877235
2022-12-19T03:05:30.562Z,50.877251
2022-12-19T03:06:30.539Z,50.877232
2022-12-19T03:07:30.522Z,50.877193
2022-12-19T03:08:30.559Z,50.877224
2022-12-19T03:09:30.527Z,50.877213
2022-12-19T03:10:30.517Z,50.877228
2022-12-19T03:11:30.494Z,50.877213
2022-12-19T03:12:30.484Z,50.877235
2022-12-19T03:13:30.460Z,50.877235
2022-12-19T03:14:30.472Z,50.877274
2022-12-19T03:15:30.450Z,50.877274
2022-12-19T03:16:30.499Z,50.877232
2022-12-19T03:29:49.937Z,50.877190
2022-12-19T03:30:49.982Z,50.877182
2022-12-19T03:31:49.917Z,50.877209
2022-12-19T03:32:49.926Z,50.877155
2022-12-19T03:33:49.939Z,50.877148
2022-12-19T03:34:49.889Z,50.877144
2022-12-19T03:35:49.955Z,50.877209
2022-12-19T03:36:49.883Z,50.877205
2022-12-19T03:37:49.859Z,50.877213
2022-12-19T03:38:49.895Z,50.877155
2022-12-19T03:39:49.883Z,50.877235
2022-12-19T03:40:49.833Z,50.877167
2022-12-19T03:41:49.885Z,50.877110
2022-12-19T03:42:49.822Z,50.877254
2022-12-19T03:43:49.821Z,50.877186
2022-12-19T03:44:49.797Z,50.877209
2022-12-19T03:45:49.838Z,50.877159
2022-12-19T03:46:49.783Z,50.877213
2022-12-19T03:47:49.789Z,50.877190
2022-12-19T03:48:50.432Z,50.877232
2022-12-19T03:49:49.789Z,50.877193
2022-12-19T03:50:49.744Z,50.877186
2022-12-19T03:51:50.131Z,50.877296
2022-12-19T03:52:49.866Z,50.877239
2022-12-19T03:53:49.710Z,50.877163
2022-12-19T03:54:50.700Z,50.877193
2022-12-19T03:55:49.712Z,50.877201
2022-12-19T03:56:49.707Z,50.877167
2022-12-19T03:57:49.680Z,50.877186
2022-12-19T03:58:49.654Z,50.877083
2022-12-19T03:59:49.657Z,50.877140
2022-12-19T04:00:49.656Z,50.877106
2022-12-19T04:01:49.733Z,50.877136
2022-12-19T04:02:49.629Z,50.877205
2022-12-19T04:03:49.632Z,50.877190
2022-12-19T04:04:49.627Z,50.877174
2022-12-19T04:05:49.588Z,50.877155
2022-12-19T04:06:49.598Z,50.877186
2022-12-19T04:07:49.593Z,50.877171
2022-12-19T04:08:49.572Z,50.877186
2022-12-19T04:09:49.612Z,50.877144
2022-12-19T04:10:49.554Z,50.877171
2022-12-19T04:11:49.603Z,50.877167
2022-12-19T04:12:49.534Z,50.877167
2022-12-19T04:13:49.525Z,50.877155
2022-12-19T04:14:49.523Z,50.877151
2022-12-19T04:15:49.582Z,50.877159
2022-12-19T04:16:49.616Z,50.877171
2022-12-19T04:17:49.487Z,50.877193
2022-12-19T04:18:49.477Z,50.877144
2022-12-19T04:19:49.449Z,50.877121
2022-12-19T04:20:49.491Z,50.877098
2022-12-19T04:21:49.470Z,50.877151
2022-12-19T04:22:49.429Z,50.877113
2022-12-19T04:23:49.430Z,50.877216
2022-12-19T04:24:49.420Z,50.877151
2022-12-19T04:25:49.426Z,50.877148
2022-12-19T04:26:49.391Z,50.877163
2022-12-19T04:27:49.559Z,50.877163
2022-12-19T04:28:49.372Z,50.877174
2022-12-19T04:29:49.352Z,50.877190
2022-12-19T04:30:49.392Z,50.877163
2022-12-19T04:31:49.343Z,50.877079
2022-12-19T04:32:49.328Z,50.877071
2022-12-19T04:33:49.320Z,50.877083
2022-12-19T04:34:49.340Z,50.877129
2022-12-19T04:35:49.307Z,50.877151
2022-12-19T04:36:49.292Z,50.877178
2022-12-19T04:37:52.032Z,50.877216
2022-12-19T04:38:50.276Z,50.877171
2022-12-19T04:39:49.353Z,50.877174
2022-12-19T04:40:49.244Z,50.877171
2022-12-19T04:41:49.245Z,50.877193
2022-12-19T04:42:49.242Z,50.877186
2022-12-19T04:43:49.225Z,50.877224
2022-12-19T04:44:49.232Z,50.877216
2022-12-19T04:45:54.039Z,50.877197
2022-12-19T04:46:50.230Z,50.877186
2022-12-19T04:47:49.185Z,50.877148
2022-12-19T04:48:50.190Z,50.877182
2022-12-19T04:49:49.163Z,50.877220
2022-12-19T04:50:49.161Z,50.877216
2022-12-19T04:51:49.144Z,50.877228
2022-12-19T04:52:53.220Z,50.877155
2022-12-19T04:53:50.137Z,50.877136
2022-12-19T04:54:49.150Z,50.877209
2022-12-19T04:55:49.201Z,50.877193
2022-12-19T04:56:49.084Z,50.877182
2022-12-19T04:57:49.090Z,50.877167
2022-12-19T04:58:49.082Z,50.877205
2022-12-19T04:59:49.075Z,50.877216
2022-12-19T05:00:49.091Z,50.877201
2022-12-19T05:01:49.170Z,50.877201
2022-12-19T05:02:49.118Z,50.877266
2022-12-19T05:03:54.617Z,50.877281
2022-12-19T05:04:51.026Z,50.877277
2022-12-19T05:05:49.004Z,50.877293
2022-12-19T05:06:49.020Z,50.877174
2022-12-19T05:07:49.000Z,50.877171
2022-12-19T05:08:48.998Z,50.877182
2022-12-19T05:09:48.980Z,50.877174
2022-12-19T05:10:48.993Z,50.877178
2022-12-19T05:11:49.035Z,50.877144
2022-12-19T05:12:48.950Z,50.877178
2022-12-19T05:13:48.932Z,50.877151
2022-12-19T05:14:48.950Z,50.877171
2022-12-19T05:15:48.974Z,50.877171
2022-12-19T05:16:48.910Z,50.877174
2022-12-19T05:17:48.897Z,50.877155
2022-12-19T05:18:48.907Z,50.877148
2022-12-19T05:19:48.878Z,50.877171
2022-12-19T05:20:48.894Z,50.877136
2022-12-19T05:21:48.870Z,50.877090
2022-12-19T05:22:48.858Z,50.877125
2022-12-19T05:23:48.835Z,50.877117
2022-12-19T05:24:48.861Z,50.877129
2022-12-19T05:25:48.813Z,50.877113
2022-12-19T05:26:48.818Z,50.877102
2022-12-19T05:27:48.866Z,50.877102
2022-12-19T05:28:49.794Z,50.877071
2022-12-19T05:29:48.812Z,50.877052
2022-12-19T05:30:52.178Z,50.877090
2022-12-19T05:31:49.841Z,50.877125
2022-12-19T05:32:48.779Z,50.877045
2022-12-19T05:33:48.770Z,50.877064
2022-12-19T05:34:48.738Z,50.877136
2022-12-19T05:35:48.733Z,50.877121
2022-12-19T05:36:48.725Z,50.877163
2022-12-19T05:37:48.700Z,50.877167
2022-12-19T05:38:48.682Z,50.877182
2022-12-19T05:39:48.741Z,50.877110
2022-12-19T05:40:48.666Z,50.877205
2022-12-19T05:41:49.371Z,50.877209
2022-12-19T05:42:49.657Z,50.877243
2022-12-19T05:43:48.740Z,50.877197
2022-12-19T05:44:48.627Z,50.877174
2022-12-19T05:45:48.614Z,50.877201
2022-12-19T05:46:49.664Z,50.877209
2022-12-19T05:47:48.599Z,50.877224
2022-12-19T05:48:48.611Z,50.877171
2022-12-19T05:49:48.588Z,50.877113
2022-12-19T05:50:48.604Z,50.877182
2022-12-19T05:51:48.571Z,50.877220
2022-12-19T05:52:48.562Z,50.877155
2022-12-19T05:53:48.581Z,50.877052
2022-12-19T05:54:48.561Z,50.877121
2022-12-19T05:55:48.542Z,50.877216
2022-12-19T05:56:48.544Z,50.877304
2022-12-19T05:57:48.499Z,50.877316
2022-12-19T05:58:48.523Z,50.877224
2022-12-19T05:59:48.560Z,50.877274
2022-12-19T06:00:48.506Z,50.877106
2022-12-19T06:01:48.633Z,50.877090
2022-12-19T06:02:48.617Z,50.877155
2022-12-19T06:03:48.483Z,50.877281
2022-12-19T06:04:48.441Z,50.877247
2022-12-19T06:05:48.429Z,50.877205
2022-12-19T06:06:48.418Z,50.877209
2022-12-19T06:07:48.403Z,50.877201
2022-12-19T06:08:48.417Z,50.877182
2022-12-19T06:09:48.389Z,50.877205
2022-12-19T06:10:48.374Z,50.877205
2022-12-19T06:11:48.368Z,50.877186
2022-12-19T06:12:48.357Z,50.877213
2022-12-19T06:13:48.378Z,50.877228
2022-12-19T06:14:48.363Z,50.877205
2022-12-19T06:15:48.428Z,50.877186
2022-12-19T06:16:48.321Z,50.877205
2022-12-19T06:17:48.310Z,50.877232
2022-12-19T06:18:48.306Z,50.877201
2022-12-19T06:19:48.317Z,50.877209
2022-12-19T06:20:48.290Z,50.877174
2022-12-19T06:21:48.752Z,50.877193
2022-12-19T06:22:48.261Z,50.877201
2022-12-19T06:23:48.296Z,50.877190
2022-12-19T06:24:48.249Z,50.877174
2022-12-19T06:25:48.230Z,50.877193
2022-12-19T06:26:49.216Z,50.877220
2022-12-19T06:27:49.218Z,50.877220
2022-12-19T06:28:48.241Z,50.877209
2022-12-19T06:29:48.206Z,50.877197
2022-12-19T06:30:48.185Z,50.877205
2022-12-19T06:31:48.341Z,50.877190
2022-12-19T06:32:48.165Z,50.877205
2022-12-19T06:33:48.164Z,50.877197
2022-12-19T06:35:03.613Z,50.877213
2022-12-19T06:35:50.134Z,50.877213
2022-12-19T06:36:48.134Z,50.877224
2022-12-19T06:37:48.131Z,50.877232
2022-12-19T06:38:48.110Z,50.877193
2022-12-19T06:39:48.113Z,50.877220
2022-12-19T06:40:48.080Z,50.877220
2022-12-19T06:41:48.093Z,50.877216
2022-12-19T06:42:49.070Z,50.877224
2022-12-19T06:43:53.320Z,50.877220
2022-12-19T06:44:50.056Z,50.877224
2022-12-19T06:45:48.055Z,50.877197
2022-12-19T06:46:48.055Z,50.877193
2022-12-19T06:47:48.143Z,50.877216
2022-12-19T06:48:48.025Z,50.877197
2022-12-19T06:49:47.987Z,50.877193
2022-12-19T06:50:48.011Z,50.877148
2022-12-19T06:51:49.000Z,50.877182
2022-12-19T06:52:47.958Z,50.877197
2022-12-19T06:53:47.953Z,50.877213
2022-12-19T06:54:47.948Z,50.877209
2022-12-19T06:55:47.938Z,50.877186
2022-12-19T06:56:47.964Z,50.877209
2022-12-19T06:57:47.940Z,50.877220
2022-12-19T06:58:47.916Z,50.877220
2022-12-19T06:59:47.905Z,50.877201
2022-12-19T07:00:48.061Z,50.877174
2022-12-19T07:01:48.011Z,50.877186
2022-12-19T07:02:48.995Z,50.877201
2022-12-19T07:03:47.956Z,50.877213
2022-12-19T07:04:47.860Z,50.877182
2022-12-19T07:05:47.856Z,50.877213
2022-12-19T07:06:49.382Z,50.877190
2022-12-19T07:07:48.818Z,50.877182
2022-12-19T07:08:47.852Z,50.877174
2022-12-19T07:09:47.789Z,50.877190
2022-12-19T07:10:47.851Z,50.877182
2022-12-19T07:11:47.779Z,50.877182
2022-12-19T07:12:47.778Z,50.877201
2022-12-19T07:13:47.756Z,50.877205
2022-12-19T07:14:53.007Z,50.877213
2022-12-19T07:15:48.760Z,50.877190
2022-12-19T07:16:47.757Z,50.877216
2022-12-19T07:17:47.725Z,50.877216
2022-12-19T07:18:47.716Z,50.877190
2022-12-19T07:19:47.777Z,50.877209
2022-12-19T07:20:47.712Z,50.877201
2022-12-19T07:21:47.721Z,50.877190
2022-12-19T07:22:47.671Z,50.877201
2022-12-19T07:23:47.669Z,50.877205
2022-12-19T07:24:47.644Z,50.877201
2022-12-19T07:25:47.628Z,50.877213
2022-12-19T07:26:47.634Z,50.877224
2022-12-19T07:27:47.612Z,50.877205
2022-12-19T07:28:47.605Z,50.877205
2022-12-19T07:29:47.605Z,50.877155
2022-12-19T07:30:47.592Z,50.877148
2022-12-19T07:31:47.605Z,50.877201
2022-12-19T07:32:47.593Z,50.877174
2022-12-19T07:33:47.553Z,50.877213
2022-12-19T07:34:47.551Z,50.877243
2022-12-19T07:35:47.618Z,50.877285
2022-12-19T07:36:47.541Z,50.877354
2022-12-19T07:37:47.542Z,50.877346
2022-12-19T07:38:47.524Z,50.877327
2022-12-19T07:39:47.596Z,50.877319
2022-12-19T07:40:47.525Z,50.877312
2022-12-19T07:41:47.487Z,50.877262
2022-12-19T07:42:47.519Z,50.877300
2022-12-19T07:43:47.474Z,50.877274
2022-12-19T07:44:47.488Z,50.877228
2022-12-19T07:45:47.522Z,50.877254
2022-12-19T07:46:47.489Z,50.877327
2022-12-19T07:47:47.429Z,50.877281
2022-12-19T07:48:47.421Z,50.877293
2022-12-19T07:49:47.434Z,50.877346
2022-12-19T07:50:47.389Z,50.877369
2022-12-19T07:51:47.472Z,50.877377
2022-12-19T07:52:47.383Z,50.877220
2022-12-19T07:53:47.371Z,50.877247
2022-12-19T07:54:47.366Z,50.877323
2022-12-19T07:55:47.384Z,50.877323
2022-12-19T07:56:47.349Z,50.877323
2022-12-19T07:57:47.326Z,50.877323
2022-12-19T07:58:47.340Z,50.877323
2022-12-19T07:59:47.310Z,50.877323
2022-12-19T08:00:47.391Z,50.877323
2022-12-19T08:01:47.538Z,50.877323
2022-12-19T08:02:47.403Z,50.877323
2022-12-19T08:03:47.281Z,50.877323
2022-12-19T08:04:47.256Z,50.877323
2022-12-19T08:05:47.275Z,50.877323
2022-12-19T08:06:47.243Z,50.877323
2022-12-19T08:07:47.326Z,50.876961
2022-12-19T08:08:47.220Z,50.877068
2022-12-19T08:09:47.263Z,50.877022
2022-12-19T08:10:47.207Z,50.877041
2022-12-19T08:11:47.207Z,50.877018
2022-12-19T08:12:47.181Z,50.877075
2022-12-19T08:13:47.300Z,50.877048
2022-12-19T08:14:47.185Z,50.877071
2022-12-19T08:15:47.170Z,50.876995
2022-12-19T08:17:18.581Z,50.877048
2022-12-19T08:17:49.174Z,50.876991
2022-12-19T08:18:48.116Z,50.877148
2022-12-19T08:19:47.130Z,50.877251
2022-12-19T08:20:47.160Z,50.877235
2022-12-19T08:21:47.152Z,50.877094
2022-12-19T08:22:47.130Z,50.877148
2022-12-19T08:23:47.088Z,50.877110
2022-12-19T08:24:47.081Z,50.877094
2022-12-19T08:25:47.071Z,50.877060
2022-12-19T08:26:47.883Z,50.877159
2022-12-19T08:27:48.077Z,50.877182
2022-12-19T08:28:47.071Z,50.877094
2022-12-19T08:29:47.018Z,50.877037
2022-12-19T08:30:47.061Z,50.877113
2022-12-19T08:31:46.999Z,50.877201
2022-12-19T08:32:46.995Z,50.877289
2022-12-19T08:33:46.991Z,50.877213
2022-12-19T08:34:47.005Z,50.877258
2022-12-19T08:35:46.979Z,50.876984
2022-12-19T08:36:46.958Z,50.876968
2022-12-19T08:37:46.943Z,50.876957
2022-12-19T08:38:46.929Z,50.876957
2022-12-19T08:39:46.971Z,50.876957
2022-12-19T08:40:47.647Z,50.876957
2022-12-19T08:41:47.896Z,50.876957
2022-12-19T08:42:46.916Z,50.876957
2022-12-19T08:43:46.880Z,50.876957
2022-12-19T08:44:46.911Z,50.876957
2022-12-19T08:45:46.914Z,50.876957
2022-12-19T08:46:50.342Z,50.876957
2022-12-19T08:47:46.867Z,50.877201
2022-12-19T08:48:47.901Z,50.877209
2022-12-19T08:49:46.824Z,50.877186
2022-12-19T08:50:46.823Z,50.877186
2022-12-19T08:51:46.820Z,50.877098
2022-12-19T08:52:46.824Z,50.877083
2022-12-19T08:53:46.792Z,50.877064
2022-12-19T08:54:46.780Z,50.877064
2022-12-19T08:55:46.881Z,50.877064
2022-12-19T08:56:47.218Z,50.877064
2022-12-19T08:57:47.789Z,50.877064
2022-12-19T08:58:46.733Z,50.877064
2022-12-19T08:59:46.769Z,50.877064
2022-12-19T09:00:54.015Z,50.877064
2022-12-19T09:01:48.817Z,50.877064
2022-12-19T09:02:46.817Z,50.877064
2022-12-19T09:04:16.457Z,50.877064
2022-12-19T09:05:59.258Z,50.877064
2022-12-19T09:06:03.922Z,50.877064
2022-12-19T09:06:47.714Z,50.877262
2022-12-19T09:07:46.671Z,50.877216
2022-12-19T09:08:46.676Z,50.877132
2022-12-19T09:09:46.652Z,50.877102
2022-12-19T09:10:46.625Z,50.877155
2022-12-19T09:11:47.968Z,50.877144
2022-12-19T09:12:50.106Z,50.877144
2022-12-19T09:13:46.607Z,50.877129
2022-12-19T09:14:46.603Z,50.877094
2022-12-19T09:15:46.599Z,50.877113
2022-12-19T09:16:46.647Z,50.877186
2022-12-19T09:18:18.460Z,50.877193
2022-12-19T09:18:48.627Z,50.877155
2022-12-19T09:19:48.264Z,50.877148
2022-12-19T09:20:46.594Z,50.877121
2022-12-19T09:21:46.548Z,50.877132
2022-12-19T09:22:46.521Z,50.877151
2022-12-19T09:23:46.525Z,50.877167
2022-12-19T09:24:46.492Z,50.877083
2022-12-19T09:25:46.505Z,50.877171
2022-12-19T09:26:46.502Z,50.877197
2022-12-19T09:28:18.021Z,50.877190
2022-12-19T09:28:48.532Z,50.877148
2022-12-19T09:29:46.451Z,50.877159
2022-12-19T09:30:46.472Z,50.877167
2022-12-19T09:31:46.453Z,50.877182
2022-12-19T09:32:46.785Z,50.877171
2022-12-19T09:33:46.431Z,50.877125
2022-12-19T09:34:46.411Z,50.877171
2022-12-19T09:35:46.432Z,50.877197
2022-12-19T09:36:46.401Z,50.877178
2022-12-19T09:37:46.378Z,50.877151
2022-12-19T09:38:46.392Z,50.877129
2022-12-19T09:39:46.438Z,50.877151
2022-12-19T09:40:46.350Z,50.877171
2022-12-19T09:41:46.331Z,50.877148
2022-12-19T09:42:46.368Z,50.877129
2022-12-19T09:43:46.387Z,50.877216
2022-12-19T09:44:46.300Z,50.877224
2022-12-19T09:45:46.382Z,50.877281
2022-12-19T09:46:46.290Z,50.877239
2022-12-19T09:47:46.307Z,50.877243
2022-12-19T09:48:50.931Z,50.877243
2022-12-19T09:49:48.292Z,50.877243
2022-12-19T09:50:46.257Z,50.877243
2022-12-19T09:51:46.250Z,50.877243
2022-12-19T09:52:46.239Z,50.877190
2022-12-19T09:53:46.236Z,50.877197
2022-12-19T09:54:46.304Z,50.877197
2022-12-19T09:55:46.207Z,50.877205
2022-12-19T09:56:46.888Z,50.877190
2022-12-19T09:57:46.165Z,50.877213
2022-12-19T09:58:46.221Z,50.877209
2022-12-19T09:59:50.015Z,50.877209
2022-12-19T10:00:47.146Z,50.877205
2022-12-19T10:01:46.230Z,50.877178
2022-12-19T10:02:46.408Z,50.877182
2022-12-19T10:03:46.168Z,50.877197
2022-12-19T10:04:46.151Z,50.877193
2022-12-19T10:06:29.475Z,50.877155
2022-12-19T10:07:20.590Z,50.877167
2022-12-19T10:08:07.078Z,50.877163
2022-12-19T10:09:26.351Z,50.877148
2022-12-19T10:10:55.526Z,50.877148
2022-12-19T10:12:38.373Z,50.877140
2022-12-19T10:12:44.609Z,50.877144
2022-12-19T10:12:52.964Z,50.877151
2022-12-19T10:13:47.063Z,50.877163
2022-12-19T10:14:46.066Z,50.877171
2022-12-19T10:15:46.249Z,50.877182
2022-12-19T10:17:08.487Z,50.877163
2022-12-19T10:17:48.008Z,50.877205
2022-12-19T10:18:48.533Z,50.877224
2022-12-19T10:19:45.958Z,50.877216
2022-12-19T10:20:45.977Z,50.877213
2022-12-19T10:22:46.960Z,50.877216
2022-12-19T10:23:45.981Z,50.877239
2022-12-19T10:24:56.627Z,50.877571
2022-12-19T10:25:46.925Z,50.877487
2022-12-19T10:26:45.952Z,50.877487
2022-12-19T10:27:58.539Z,50.877602
2022-12-19T10:28:46.900Z,50.877617
2022-12-19T10:29:45.870Z,50.877556
2022-12-19T10:30:45.920Z,50.877541
2022-12-19T10:31:45.998Z,50.877499
2022-12-19T10:32:46.873Z,50.877598
2022-12-19T10:33:45.866Z,50.877598
2022-12-19T10:34:48.861Z,50.877407
2022-12-19T10:35:45.820Z,50.877407
2022-12-19T10:37:49.730Z,50.877457
2022-12-19T10:38:51.627Z,50.877457
2022-12-19T10:39:46.808Z,50.877457
2022-12-19T10:40:45.787Z,50.877457
2022-12-19T10:41:45.771Z,50.877457
2022-12-19T10:42:45.825Z,50.877457
2022-12-19T10:43:45.818Z,50.877457
2022-12-19T10:44:45.823Z,50.877430
2022-12-19T10:45:47.078Z,50.877319
2022-12-19T10:46:45.802Z,50.877399
2022-12-19T10:47:45.855Z,50.877361
2022-12-19T10:48:45.739Z,50.877262
2022-12-19T10:49:45.682Z,50.877216
2022-12-19T10:50:45.673Z,50.877193
2022-12-19T10:51:45.677Z,50.877163
2022-12-19T10:52:45.650Z,50.877205
2022-12-19T10:53:45.654Z,50.877182
2022-12-19T10:54:45.630Z,50.877178
2022-12-19T10:55:45.664Z,50.877125
2022-12-19T10:56:45.626Z,50.877174
2022-12-19T10:57:45.654Z,50.877293
2022-12-19T10:58:45.639Z,50.877354
2022-12-19T10:59:45.595Z,50.877193
2022-12-19T11:00:45.576Z,50.877182
2022-12-19T11:01:45.772Z,50.877171
2022-12-19T11:02:46.699Z,50.877224
2022-12-19T11:03:46.507Z,50.877144
2022-12-19T11:04:45.625Z,50.877129
2022-12-19T11:05:45.524Z,50.877197
2022-12-19T11:06:45.565Z,50.877163
2022-12-19T11:07:45.543Z,50.877148
2022-12-19T11:08:45.553Z,50.877159
2022-12-19T11:09:49.593Z,50.877148
2022-12-19T11:13:10.296Z,50.877178
2022-12-19T11:15:17.090Z,50.877144
2022-12-19T11:18:12.040Z,50.877174
2022-12-19T11:18:17.662Z,50.877132
2022-12-19T11:19:28.646Z,50.877190
2022-12-19T11:20:51.290Z,50.877117
2022-12-19T11:22:46.936Z,50.877129
2022-12-19T11:29:15.212Z,50.877094
2022-12-19T11:29:16.097Z,50.877228
2022-12-19T11:29:29.802Z,50.877331
2022-12-19T11:29:30.746Z,50.877117
2022-12-19T11:29:33.566Z,50.877186
2022-12-19T11:29:40.284Z,50.877228
2022-12-19T11:29:40.715Z,50.877205
2022-12-19T11:29:54.949Z,50.877144
2022-12-19T11:30:08.453Z,50.877193
2022-12-19T11:30:35.212Z,50.877163
2022-12-19T11:30:41.738Z,50.877140
2022-12-19T11:30:48.000Z,50.877171
2022-12-19T11:31:55.664Z,50.877190
2022-12-19T11:32:47.700Z,50.877186
2022-12-19T11:33:45.291Z,50.877186
2022-12-19T11:34:45.248Z,50.877182
2022-12-19T11:35:45.329Z,50.877171
2022-12-19T11:36:45.221Z,50.877155
2022-12-19T11:37:45.209Z,50.877155
2022-12-19T11:38:45.202Z,50.877167
2022-12-19T11:39:45.217Z,50.877178
2022-12-19T11:40:49.295Z,50.877182